sensor_id;sensor_type;location;lat;lon;timestamp;pressure;altitude;pressure_sealevel;temperature;humidity
36380;BME280;22411;53.016;18.632;2023-04-25T00:01:33;99461.75;;;11.78;100.00
36380;BME280;22411;53.016;18.632;2023-04-25T00:04:02;99471.31;;;11.78;100.00
36380;BME280;22411;53.016;18.632;2023-04-25T00:06:29;99467.34;;;11.74;100.00
36380;BME280;22411;53.016;18.632;2023-04-25T00:08:56;99465.56;;;11.74;100.00
36380;BME280;22411;53.016;18.632;2023-04-25T00:11:22;99462.69;;;11.68;100.00
36380;BME280;22411;53.016;18.632;2023-04-25T00:13:49;99462.84;;;11.66;100.00
36380;BME280;22411;53.016;18.632;2023-04-25T00:16:16;99457.25;;;11.61;100.00
36380;BME280;22411;53.016;18.632;2023-04-25T00:18:43;99452.72;;;11.53;100.00
36380;BME280;22411;53.016;18.632;2023-04-25T00:21:10;99455.31;;;11.53;100.00
36380;BME280;22411;53.016;18.632;2023-04-25T00:23:37;99456.94;;;11.55;100.00
36380;BME280;22411;53.016;18.632;2023-04-25T00:26:04;99453.13;;;11.59;100.00
36380;BME280;22411;53.016;18.632;2023-04-25T00:28:31;99454.34;;;11.55;100.00
36380;BME280;22411;53.016;18.632;2023-04-25T00:30:58;99449.59;;;11.50;100.00
36380;BME280;22411;53.016;18.632;2023-04-25T00:33:24;99450.94;;;11.54;100.00
36380;BME280;22411;53.016;18.632;2023-04-25T00:35:50;99452.06;;;11.51;100.00
36380;BME280;22411;53.016;18.632;2023-04-25T00:38:16;99444.25;;;11.51;100.00
36380;BME280;22411;53.016;18.632;2023-04-25T00:40:42;99451.75;;;11.55;100.00
36380;BME280;22411;53.016;18.632;2023-04-25T00:43:10;99447.41;;;11.55;100.00
36380;BME280;22411;53.016;18.632;2023-04-25T00:45:38;99443.16;;;11.54;100.00
36380;BME280;22411;53.016;18.632;2023-04-25T00:48:05;99440.84;;;11.51;100.00
36380;BME280;22411;53.016;18.632;2023-04-25T00:50:36;99440.28;;;11.47;100.00
36380;BME280;22411;53.016;18.632;2023-04-25T00:53:03;99442.06;;;11.47;100.00
36380;BME280;22411;53.016;18.632;2023-04-25T00:55:29;99430.88;;;11.46;100.00
36380;BME280;22411;53.016;18.632;2023-04-25T00:57:57;99438.00;;;11.44;100.00
36380;BME280;22411;53.016;18.632;2023-04-25T01:00:23;99435.09;;;11.38;100.00
36380;BME280;22411;53.016;18.632;2023-04-25T01:02:50;99435.25;;;11.36;100.00
36380;BME280;22411;53.016;18.632;2023-04-25T01:05:16;99434.03;;;11.40;100.00
36380;BME280;22411;53.016;18.632;2023-04-25T01:07:45;99443.59;;;11.40;100.00
36380;BME280;22411;53.016;18.632;2023-04-25T01:10:11;99439.06;;;11.32;100.00
36380;BME280;22411;53.016;18.632;2023-04-25T01:12:39;99442.47;;;11.33;100.00
36380;BME280;22411;53.016;18.632;2023-04-25T01:15:06;99442.47;;;11.33;100.00
36380;BME280;22411;53.016;18.632;2023-04-25T01:17:34;99433.44;;;11.27;100.00
36380;BME280;22411;53.016;18.632;2023-04-25T01:20:06;99441.78;;;11.21;100.00
36380;BME280;22411;53.016;18.632;2023-04-25T01:22:34;99439.47;;;11.18;100.00
36380;BME280;22411;53.016;18.632;2023-04-25T01:25:00;99438.75;;;11.16;100.00
36380;BME280;22411;53.016;18.632;2023-04-25T01:27:27;99441.34;;;11.16;100.00
36380;BME280;22411;53.016;18.632;2023-04-25T01:29:55;99434.78;;;11.12;100.00
36380;BME280;22411;53.016;18.632;2023-04-25T01:32:23;99437.53;;;11.10;100.00
36380;BME280;22411;53.016;18.632;2023-04-25T01:34:49;99438.22;;;11.03;100.00
36380;BME280;22411;53.016;18.632;2023-04-25T01:37:16;99441.44;;;10.95;100.00
36380;BME280;22411;53.016;18.632;2023-04-25T01:39:42;99439.97;;;10.92;100.00
36380;BME280;22411;53.016;18.632;2023-04-25T01:42:09;99444.81;;;10.86;100.00
36380;BME280;22411;53.016;18.632;2023-04-25T01:44:36;99452.59;;;10.76;100.00
36380;BME280;22411;53.016;18.632;2023-04-25T01:47:02;99443.16;;;10.65;100.00
36380;BME280;22411;53.016;18.632;2023-04-25T01:49:28;99457.41;;;10.60;100.00
36380;BME280;22411;53.016;18.632;2023-04-25T01:51:55;99454.81;;;10.50;100.00
36380;BME280;22411;53.016;18.632;2023-04-25T01:54:21;99466.63;;;10.43;100.00
36380;BME280;22411;53.016;18.632;2023-04-25T01:56:51;99455.28;;;10.34;100.00
36380;BME280;22411;53.016;18.632;2023-04-25T01:59:18;99463.97;;;10.33;100.00
36380;BME280;22411;53.016;18.632;2023-04-25T02:01:46;99459.47;;;10.26;100.00
36380;BME280;22411;53.016;18.632;2023-04-25T02:04:12;99465.59;;;10.25;100.00
36380;BME280;22411;53.016;18.632;2023-04-25T02:06:39;99463.09;;;10.23;100.00
36380;BME280;22411;53.016;18.632;2023-04-25T02:09:05;99463.22;;;10.21;100.00
36380;BME280;22411;53.016;18.632;2023-04-25T02:11:31;99470.44;;;10.18;100.00
36380;BME280;22411;53.016;18.632;2023-04-25T02:13:58;99461.34;;;10.03;100.00
36380;BME280;22411;53.016;18.632;2023-04-25T02:16:24;99466.59;;;9.91;100.00
36380;BME280;22411;53.016;18.632;2023-04-25T02:18:51;99467.31;;;9.82;100.00
36380;BME280;22411;53.016;18.632;2023-04-25T02:21:19;99467.13;;;9.74;100.00
36380;BME280;22411;53.016;18.632;2023-04-25T02:23:45;99469.03;;;9.72;100.00
36380;BME280;22411;53.016;18.632;2023-04-25T02:26:14;99466.44;;;9.72;100.00
36380;BME280;22411;53.016;18.632;2023-04-25T02:28:40;99472.56;;;9.71;100.00
36380;BME280;22411;53.016;18.632;2023-04-25T02:31:07;99472.56;;;9.71;100.00
36380;BME280;22411;53.016;18.632;2023-04-25T02:33:32;99466.44;;;9.72;100.00
36380;BME280;22411;53.016;18.632;2023-04-25T02:35:59;99477.28;;;9.66;100.00
36380;BME280;22411;53.016;18.632;2023-04-25T02:38:25;99471.16;;;9.67;100.00
36380;BME280;22411;53.016;18.632;2023-04-25T02:40:51;99475.75;;;9.63;100.00
36380;BME280;22411;53.016;18.632;2023-04-25T02:43:17;99476.56;;;9.64;100.00
36380;BME280;22411;53.016;18.632;2023-04-25T02:45:43;99480.09;;;9.63;100.00
36380;BME280;22411;53.016;18.632;2023-04-25T02:48:10;99468.94;;;9.62;100.00
36380;BME280;22411;53.016;18.632;2023-04-25T02:50:36;99482.00;;;9.61;100.00
36380;BME280;22411;53.016;18.632;2023-04-25T02:53:03;99480.81;;;9.65;100.00
36380;BME280;22411;53.016;18.632;2023-04-25T02:55:29;99483.63;;;9.62;100.00
36380;BME280;22411;53.016;18.632;2023-04-25T02:57:55;99485.63;;;9.58;100.00
36380;BME280;22411;53.016;18.632;2023-04-25T03:00:21;99492.94;;;9.53;100.00
36380;BME280;22411;53.016;18.632;2023-04-25T03:02:48;99489.00;;;9.49;100.00
36380;BME280;22411;53.016;18.632;2023-04-25T03:05:14;99496.75;;;9.49;100.00
36380;BME280;22411;53.016;18.632;2023-04-25T03:07:40;99497.66;;;9.48;100.00
36380;BME280;22411;53.016;18.632;2023-04-25T03:10:07;99495.22;;;9.47;100.00
36380;BME280;22411;53.016;18.632;2023-04-25T03:12:33;99489.44;;;9.43;100.00
36380;BME280;22411;53.016;18.632;2023-04-25T03:15:00;99487.00;;;9.41;100.00
36380;BME280;22411;53.016;18.632;2023-04-25T03:17:26;99482.50;;;9.43;100.00
36380;BME280;22411;53.016;18.632;2023-04-25T03:19:53;99484.19;;;9.45;100.00
36380;BME280;22411;53.016;18.632;2023-04-25T03:22:19;99485.81;;;9.46;100.00
36380;BME280;22411;53.016;18.632;2023-04-25T03:24:45;99492.50;;;9.48;100.00
36380;BME280;22411;53.016;18.632;2023-04-25T03:27:11;99490.41;;;9.42;100.00
36380;BME280;22411;53.016;18.632;2023-04-25T03:29:38;99496.66;;;9.39;100.00
36380;BME280;22411;53.016;18.632;2023-04-25T03:32:04;99491.25;;;9.31;100.00
36380;BME280;22411;53.016;18.632;2023-04-25T03:34:32;99486.09;;;9.31;100.00
36380;BME280;22411;53.016;18.632;2023-04-25T03:36:59;99489.84;;;9.27;100.00
36380;BME280;22411;53.016;18.632;2023-04-25T03:39:26;99494.44;;;9.24;100.00
36380;BME280;22411;53.016;18.632;2023-04-25T03:41:52;99497.84;;;9.24;100.00
36380;BME280;22411;53.016;18.632;2023-04-25T03:44:18;99498.81;;;9.23;100.00
36380;BME280;22411;53.016;18.632;2023-04-25T03:46:44;99512.44;;;9.14;100.00
36380;BME280;22411;53.016;18.632;2023-04-25T03:49:10;99512.19;;;9.06;100.00
36380;BME280;22411;53.016;18.632;2023-04-25T03:51:37;99509.06;;;9.02;100.00
36380;BME280;22411;53.016;18.632;2023-04-25T03:54:03;99528.31;;;8.98;100.00
36380;BME280;22411;53.016;18.632;2023-04-25T03:56:29;99520.22;;;8.92;100.00
36380;BME280;22411;53.016;18.632;2023-04-25T03:58:56;99527.50;;;8.86;100.00
36380;BME280;22411;53.016;18.632;2023-04-25T04:01:22;99518.56;;;8.79;100.00
36380;BME280;22411;53.016;18.632;2023-04-25T04:03:48;99523.16;;;8.76;100.00
36380;BME280;22411;53.016;18.632;2023-04-25T04:06:14;99529.25;;;8.75;100.00
36380;BME280;22411;53.016;18.632;2023-04-25T04:08:40;99524.19;;;8.73;100.00
36380;BME280;22411;53.016;18.632;2023-04-25T04:11:07;99528.66;;;8.71;100.00
36380;BME280;22411;53.016;18.632;2023-04-25T04:13:34;99533.84;;;8.71;100.00
36380;BME280;22411;53.016;18.632;2023-04-25T04:16:00;99537.13;;;8.73;100.00
36380;BME280;22411;53.016;18.632;2023-04-25T04:18:26;99533.03;;;8.71;100.00
36380;BME280;22411;53.016;18.632;2023-04-25T04:20:52;99545.81;;;8.72;100.00
36380;BME280;22411;53.016;18.632;2023-04-25T04:23:19;99537.59;;;8.67;100.00
36380;BME280;22411;53.016;18.632;2023-04-25T04:25:46;99543.44;;;8.69;100.00
36380;BME280;22411;53.016;18.632;2023-04-25T04:28:12;99539.69;;;8.62;100.00
36380;BME280;22411;53.016;18.632;2023-04-25T04:30:39;99540.16;;;8.67;100.00
36380;BME280;22411;53.016;18.632;2023-04-25T04:33:07;99548.25;;;8.62;100.00
36380;BME280;22411;53.016;18.632;2023-04-25T04:35:33;99547.56;;;8.60;100.00
36380;BME280;22411;53.016;18.632;2023-04-25T04:37:59;99548.25;;;8.62;100.00
36380;BME280;22411;53.016;18.632;2023-04-25T04:40:26;99549.69;;;8.67;100.00
36380;BME280;22411;53.016;18.632;2023-04-25T04:42:53;99546.16;;;8.68;100.00
36380;BME280;22411;53.016;18.632;2023-04-25T04:45:22;99557.09;;;8.71;100.00
36380;BME280;22411;53.016;18.632;2023-04-25T04:47:49;99542.53;;;8.70;100.00
36380;BME280;22411;53.016;18.632;2023-04-25T04:50:15;99548.16;;;8.75;100.00
36380;BME280;22411;53.016;18.632;2023-04-25T04:52:42;99546.28;;;8.77;100.00
36380;BME280;22411;53.016;18.632;2023-04-25T04:55:09;99548.53;;;8.82;100.00
36380;BME280;22411;53.016;18.632;2023-04-25T04:57:36;99546.41;;;8.87;100.00
36380;BME280;22411;53.016;18.632;2023-04-25T05:00:03;99551.09;;;8.93;100.00
36380;BME280;22411;53.016;18.632;2023-04-25T05:02:38;99551.94;;;8.94;100.00
36380;BME280;22411;53.016;18.632;2023-04-25T05:05:05;99548.75;;;8.90;100.00
36380;BME280;22411;53.016;18.632;2023-04-25T05:07:32;99559.22;;;8.88;100.00
36380;BME280;22411;53.016;18.632;2023-04-25T05:09:59;99565.06;;;8.79;100.00
36380;BME280;22411;53.016;18.632;2023-04-25T05:12:26;99570.47;;;8.76;100.00
36380;BME280;22411;53.016;18.632;2023-04-25T05:14:52;99560.63;;;8.70;100.00
36380;BME280;22411;53.016;18.632;2023-04-25T05:17:19;99564.72;;;8.73;100.00
36380;BME280;22411;53.016;18.632;2023-04-25T05:19:45;99575.06;;;8.73;100.00
36380;BME280;22411;53.016;18.632;2023-04-25T05:22:12;99568.25;;;8.72;100.00
36380;BME280;22411;53.016;18.632;2023-04-25T05:24:38;99565.78;;;8.70;100.00
36380;BME280;22411;53.016;18.632;2023-04-25T05:27:05;99576.69;;;8.62;100.00
36380;BME280;22411;53.016;18.632;2023-04-25T05:29:32;99570.47;;;8.65;100.00
36380;BME280;22411;53.016;18.632;2023-04-25T05:31:58;99575.03;;;8.61;100.00
36380;BME280;22411;53.016;18.632;2023-04-25T05:34:24;99577.28;;;8.66;100.00
36380;BME280;22411;53.016;18.632;2023-04-25T05:36:52;99586.66;;;8.67;100.00
36380;BME280;22411;53.016;18.632;2023-04-25T05:39:18;99593.47;;;8.57;100.00
36380;BME280;22411;53.016;18.632;2023-04-25T05:41:45;99592.50;;;8.58;100.00
36380;BME280;22411;53.016;18.632;2023-04-25T05:44:11;99584.75;;;8.58;100.00
36380;BME280;22411;53.016;18.632;2023-04-25T05:46:37;99599.09;;;8.62;100.00
36380;BME280;22411;53.016;18.632;2023-04-25T05:49:03;99586.06;;;8.63;100.00
36380;BME280;22411;53.016;18.632;2023-04-25T05:51:30;99584.91;;;8.68;100.00
36380;BME280;22411;53.016;18.632;2023-04-25T05:53:57;99602.03;;;8.69;100.00
36380;BME280;22411;53.016;18.632;2023-04-25T05:56:24;99594.78;;;8.74;100.00
36380;BME280;22411;53.016;18.632;2023-04-25T05:58:50;99589.25;;;8.78;100.00
36380;BME280;22411;53.016;18.632;2023-04-25T06:01:17;99601.72;;;8.96;100.00
36380;BME280;22411;53.016;18.632;2023-04-25T06:03:43;99583.19;;;9.02;100.00
36380;BME280;22411;53.016;18.632;2023-04-25T06:06:13;99591.03;;;9.23;100.00
36380;BME280;22411;53.016;18.632;2023-04-25T06:08:40;99587.97;;;9.40;100.00
36380;BME280;22411;53.016;18.632;2023-04-25T06:11:07;99599.72;;;9.33;100.00
36380;BME280;22411;53.016;18.632;2023-04-25T06:13:33;99596.22;;;9.34;100.00
36380;BME280;22411;53.016;18.632;2023-04-25T06:15:59;99599.97;;;9.30;100.00
36380;BME280;22411;53.016;18.632;2023-04-25T06:18:25;99607.84;;;9.39;100.00
36380;BME280;22411;53.016;18.632;2023-04-25T06:20:51;99602.91;;;9.48;100.00
36380;BME280;22411;53.016;18.632;2023-04-25T06:23:17;99591.84;;;9.46;100.00
36380;BME280;22411;53.016;18.632;2023-04-25T06:25:43;99609.34;;;9.53;100.00
36380;BME280;22411;53.016;18.632;2023-04-25T06:28:09;99608.19;;;9.46;100.00
36380;BME280;22411;53.016;18.632;2023-04-25T06:30:36;99604.44;;;9.50;100.00
36380;BME280;22411;53.016;18.632;2023-04-25T06:33:01;99601.72;;;9.52;100.00
36380;BME280;22411;53.016;18.632;2023-04-25T06:35:28;99605.59;;;9.57;100.00
36380;BME280;22411;53.016;18.632;2023-04-25T06:37:54;99603.94;;;9.56;100.00
36380;BME280;22411;53.016;18.632;2023-04-25T06:40:20;99612.41;;;9.47;100.00
36380;BME280;22411;53.016;18.632;2023-04-25T06:42:46;99607.84;;;9.39;100.00
36380;BME280;22411;53.016;18.632;2023-04-25T06:45:12;99617.97;;;9.31;100.00
36380;BME280;22411;53.016;18.632;2023-04-25T06:47:40;99605.28;;;9.39;100.00
36380;BME280;22411;53.016;18.632;2023-04-25T06:50:07;99604.91;;;9.33;100.00
36380;BME280;22411;53.016;18.632;2023-04-25T06:52:33;99610.44;;;9.17;100.00
36380;BME280;22411;53.016;18.632;2023-04-25T06:55:00;99604.81;;;9.23;100.00
36380;BME280;22411;53.016;18.632;2023-04-25T06:57:26;99603.72;;;9.37;100.00
36380;BME280;22411;53.016;18.632;2023-04-25T06:59:52;99605.75;;;9.33;100.00
36380;BME280;22411;53.016;18.632;2023-04-25T07:02:18;99599.63;;;9.46;100.00
36380;BME280;22411;53.016;18.632;2023-04-25T07:04:44;99597.81;;;9.68;100.00
36380;BME280;22411;53.016;18.632;2023-04-25T07:07:12;99600.72;;;9.86;100.00
36380;BME280;22411;53.016;18.632;2023-04-25T07:09:38;99617.41;;;9.93;100.00
36380;BME280;22411;53.016;18.632;2023-04-25T07:12:04;99606.34;;;9.91;100.00
36380;BME280;22411;53.016;18.632;2023-04-25T07:14:30;99613.75;;;9.85;100.00
36380;BME280;22411;53.016;18.632;2023-04-25T07:16:56;99602.31;;;9.99;100.00
36380;BME280;22411;53.016;18.632;2023-04-25T07:19:23;99613.53;;;10.31;100.00
36380;BME280;22411;53.016;18.632;2023-04-25T07:21:52;99607.41;;;10.53;100.00
36380;BME280;22411;53.016;18.632;2023-04-25T07:24:19;99604.47;;;10.88;100.00
36380;BME280;22411;53.016;18.632;2023-04-25T07:26:45;99612.00;;;11.22;100.00
36380;BME280;22411;53.016;18.632;2023-04-25T07:29:12;99630.13;;;10.91;100.00
36380;BME280;22411;53.016;18.632;2023-04-25T07:31:38;99617.63;;;10.76;100.00
36380;BME280;22411;53.016;18.632;2023-04-25T07:34:05;99620.56;;;10.82;100.00
36380;BME280;22411;53.016;18.632;2023-04-25T07:36:31;99620.19;;;10.87;100.00
36380;BME280;22411;53.016;18.632;2023-04-25T07:38:57;99622.59;;;11.09;100.00
36380;BME280;22411;53.016;18.632;2023-04-25T07:41:25;99624.63;;;11.06;100.00
36380;BME280;22411;53.016;18.632;2023-04-25T07:43:52;99634.56;;;11.31;100.00
36380;BME280;22411;53.016;18.632;2023-04-25T07:46:18;99629.56;;;11.39;100.00
36380;BME280;22411;53.016;18.632;2023-04-25T07:48:44;99627.03;;;11.28;100.00
36380;BME280;22411;53.016;18.632;2023-04-25T07:51:10;99629.25;;;11.33;100.00
36380;BME280;22411;53.016;18.632;2023-04-25T07:53:36;99630.00;;;11.44;100.00
36380;BME280;22411;53.016;18.632;2023-04-25T07:56:03;99630.41;;;11.49;100.00
36380;BME280;22411;53.016;18.632;2023-04-25T07:58:30;99644.00;;;11.32;100.00
36380;BME280;22411;53.016;18.632;2023-04-25T08:00:58;99636.06;;;11.24;100.00
36380;BME280;22411;53.016;18.632;2023-04-25T08:03:24;99648.19;;;11.23;100.00
36380;BME280;22411;53.016;18.632;2023-04-25T08:05:51;99640.38;;;11.14;100.00
36380;BME280;22411;53.016;18.632;2023-04-25T08:08:17;99645.19;;;11.18;100.00
36380;BME280;22411;53.016;18.632;2023-04-25T08:10:44;99637.31;;;11.30;100.00
36380;BME280;22411;53.016;18.632;2023-04-25T08:13:10;99639.53;;;11.44;100.00
36380;BME280;22411;53.016;18.632;2023-04-25T08:15:36;99638.03;;;11.41;100.00
36380;BME280;22411;53.016;18.632;2023-04-25T08:18:02;99646.69;;;11.61;100.00
36380;BME280;22411;53.016;18.632;2023-04-25T08:20:29;99649.91;;;11.44;100.00
36380;BME280;22411;53.016;18.632;2023-04-25T08:22:55;99646.47;;;11.34;100.00
36380;BME280;22411;53.016;18.632;2023-04-25T08:25:22;99650.94;;;11.62;100.00
36380;BME280;22411;53.016;18.632;2023-04-25T08:27:48;99640.31;;;11.75;100.00
36380;BME280;22411;53.016;18.632;2023-04-25T08:30:15;99645.00;;;11.91;100.00
36380;BME280;22411;53.016;18.632;2023-04-25T08:32:41;99640.50;;;11.83;100.00
36380;BME280;22411;53.016;18.632;2023-04-25T08:35:09;99642.19;;;11.63;100.00
36380;BME280;22411;53.016;18.632;2023-04-25T08:37:35;99642.22;;;11.33;100.00
36380;BME280;22411;53.016;18.632;2023-04-25T08:40:03;99636.50;;;11.39;100.00
36380;BME280;22411;53.016;18.632;2023-04-25T08:42:33;99632.75;;;11.62;100.00
36380;BME280;22411;53.016;18.632;2023-04-25T08:45:03;99644.00;;;11.72;100.00
36380;BME280;22411;53.016;18.632;2023-04-25T08:47:30;99640.16;;;11.67;100.00
36380;BME280;22411;53.016;18.632;2023-04-25T08:50:00;99641.47;;;11.82;100.00
36380;BME280;22411;53.016;18.632;2023-04-25T08:52:32;99638.06;;;12.01;100.00
36380;BME280;22411;53.016;18.632;2023-04-25T08:55:01;99641.78;;;12.47;100.00
36380;BME280;22411;53.016;18.632;2023-04-25T08:57:29;99629.19;;;12.33;100.00
36380;BME280;22411;53.016;18.632;2023-04-25T08:59:57;99640.41;;;12.33;100.00
36380;BME280;22411;53.016;18.632;2023-04-25T09:02:24;99649.16;;;12.03;100.00
36380;BME280;22411;53.016;18.632;2023-04-25T09:04:51;99656.84;;;11.74;100.00
36380;BME280;22411;53.016;18.632;2023-04-25T09:07:20;99656.41;;;11.29;100.00
36380;BME280;22411;53.016;18.632;2023-04-25T09:09:47;99656.22;;;11.20;100.00
36380;BME280;22411;53.016;18.632;2023-04-25T09:12:13;99658.69;;;11.22;100.00
36380;BME280;22411;53.016;18.632;2023-04-25T09:14:39;99667.63;;;11.29;100.00
36380;BME280;22411;53.016;18.632;2023-04-25T09:17:08;99669.41;;;11.38;100.00
36380;BME280;22411;53.016;18.632;2023-04-25T09:19:36;99668.94;;;11.23;100.00
36380;BME280;22411;53.016;18.632;2023-04-25T09:22:06;99663.94;;;11.32;100.00
36380;BME280;22411;53.016;18.632;2023-04-25T09:24:40;99667.09;;;11.35;100.00
36380;BME280;22411;53.016;18.632;2023-04-25T09:27:12;99677.50;;;11.45;100.00
36380;BME280;22411;53.016;18.632;2023-04-25T09:29:40;99678.88;;;11.49;100.00
36380;BME280;22411;53.016;18.632;2023-04-25T09:32:21;99673.09;;;11.36;100.00
36380;BME280;22411;53.016;18.632;2023-04-25T09:37:37;99673.53;;;11.41;100.00
36380;BME280;22411;53.016;18.632;2023-04-25T09:40:06;99675.84;;;11.44;100.00
36380;BME280;22411;53.016;18.632;2023-04-25T09:42:33;99677.31;;;11.67;100.00
36380;BME280;22411;53.016;18.632;2023-04-25T09:45:01;99674.81;;;11.96;100.00
36380;BME280;22411;53.016;18.632;2023-04-25T09:47:27;99683.63;;;12.24;100.00
36380;BME280;22411;53.016;18.632;2023-04-25T09:49:54;99677.88;;;12.40;100.00
36380;BME280;22411;53.016;18.632;2023-04-25T09:52:25;99678.56;;;12.62;100.00
36380;BME280;22411;53.016;18.632;2023-04-25T09:54:54;99681.28;;;12.70;100.00
36380;BME280;22411;53.016;18.632;2023-04-25T09:57:22;99687.59;;;12.67;100.00
36380;BME280;22411;53.016;18.632;2023-04-25T09:59:53;99684.19;;;12.47;100.00
36380;BME280;22411;53.016;18.632;2023-04-25T10:02:22;99682.25;;;12.20;100.00
36380;BME280;22411;53.016;18.632;2023-04-25T10:04:51;99690.72;;;12.13;100.00
36380;BME280;22411;53.016;18.632;2023-04-25T10:07:22;99692.47;;;12.02;100.00
36380;BME280;22411;53.016;18.632;2023-04-25T10:09:58;99702.66;;;11.85;100.00
36380;BME280;22411;53.016;18.632;2023-04-25T10:12:34;99697.59;;;11.52;100.00
36380;BME280;22411;53.016;18.632;2023-04-25T10:15:02;99704.09;;;11.37;100.00
36380;BME280;22411;53.016;18.632;2023-04-25T10:17:28;99702.16;;;11.30;100.00
36380;BME280;22411;53.016;18.632;2023-04-25T10:19:55;99702.41;;;11.26;100.00
36380;BME280;22411;53.016;18.632;2023-04-25T10:22:34;99706.53;;;11.29;100.00
36380;BME280;22411;53.016;18.632;2023-04-25T10:25:01;99711.19;;;11.35;100.00
36380;BME280;22411;53.016;18.632;2023-04-25T10:27:31;99706.91;;;11.24;100.00
36380;BME280;22411;53.016;18.632;2023-04-25T10:30:07;99710.69;;;11.20;100.00
36380;BME280;22411;53.016;18.632;2023-04-25T10:32:35;99719.50;;;11.29;100.00
36380;BME280;22411;53.016;18.632;2023-04-25T10:37:38;99715.00;;;11.31;100.00
36380;BME280;22411;53.016;18.632;2023-04-25T10:40:11;99711.44;;;11.32;100.00
36380;BME280;22411;53.016;18.632;2023-04-25T10:42:37;99716.53;;;11.43;100.00
36380;BME280;22411;53.016;18.632;2023-04-25T10:45:07;99714.44;;;11.58;100.00
36380;BME280;22411;53.016;18.632;2023-04-25T10:47:36;99709.53;;;11.55;100.00
36380;BME280;22411;53.016;18.632;2023-04-25T10:50:09;99701.31;;;11.50;100.00
36380;BME280;22411;53.016;18.632;2023-04-25T10:52:38;99704.03;;;11.58;100.00
36380;BME280;22411;53.016;18.632;2023-04-25T10:55:05;99707.38;;;11.70;100.00
36380;BME280;22411;53.016;18.632;2023-04-25T10:57:42;99706.88;;;11.76;100.00
36380;BME280;22411;53.016;18.632;2023-04-25T11:00:15;99708.97;;;11.82;100.00
36380;BME280;22411;53.016;18.632;2023-04-25T11:02:51;99707.19;;;11.83;100.00
36380;BME280;22411;53.016;18.632;2023-04-25T11:05:33;99711.63;;;11.81;100.00
36380;BME280;22411;53.016;18.632;2023-04-25T11:08:01;99712.56;;;11.70;100.00
36380;BME280;22411;53.016;18.632;2023-04-25T11:10:30;99709.28;;;11.68;100.00
36380;BME280;22411;53.016;18.632;2023-04-25T11:13:00;99718.88;;;11.77;100.00
36380;BME280;22411;53.016;18.632;2023-04-25T11:15:27;99724.97;;;11.87;100.00
36380;BME280;22411;53.016;18.632;2023-04-25T11:17:54;99718.66;;;11.90;100.00
36380;BME280;22411;53.016;18.632;2023-04-25T11:20:22;99730.09;;;12.08;100.00
36380;BME280;22411;53.016;18.632;2023-04-25T11:22:48;99718.59;;;12.11;100.00
36380;BME280;22411;53.016;18.632;2023-04-25T11:25:22;99711.22;;;12.16;100.00
36380;BME280;22411;53.016;18.632;2023-04-25T11:27:53;99712.19;;;12.15;100.00
36380;BME280;22411;53.016;18.632;2023-04-25T11:30:21;99711.78;;;12.19;100.00
36380;BME280;22411;53.016;18.632;2023-04-25T11:32:47;99714.69;;;12.36;100.00
36380;BME280;22411;53.016;18.632;2023-04-25T11:35:14;99722.31;;;12.37;100.00
36380;BME280;22411;53.016;18.632;2023-04-25T11:37:42;99717.41;;;12.24;100.00
36380;BME280;22411;53.016;18.632;2023-04-25T11:40:09;99721.09;;;12.32;100.00
36380;BME280;22411;53.016;18.632;2023-04-25T11:42:38;99728.22;;;12.39;100.00
36380;BME280;22411;53.016;18.632;2023-04-25T11:45:05;99729.84;;;12.30;100.00
36380;BME280;22411;53.016;18.632;2023-04-25T11:47:32;99730.13;;;12.47;100.00
36380;BME280;22411;53.016;18.632;2023-04-25T11:49:59;99719.59;;;12.68;100.00
36380;BME280;22411;53.016;18.632;2023-04-25T11:52:44;99725.47;;;12.99;100.00
36380;BME280;22411;53.016;18.632;2023-04-25T11:55:15;99724.78;;;13.26;100.00
36380;BME280;22411;53.016;18.632;2023-04-25T11:57:43;99725.25;;;13.39;100.00
36380;BME280;22411;53.016;18.632;2023-04-25T12:00:12;99724.50;;;13.19;100.00
36380;BME280;22411;53.016;18.632;2023-04-25T12:02:46;99716.97;;;12.97;100.00
36380;BME280;22411;53.016;18.632;2023-04-25T12:05:14;99724.91;;;13.05;100.00
36380;BME280;22411;53.016;18.632;2023-04-25T12:07:44;99718.91;;;12.85;100.00
36380;BME280;22411;53.016;18.632;2023-04-25T12:10:12;99728.63;;;12.64;100.00
36380;BME280;22411;53.016;18.632;2023-04-25T12:12:42;99723.31;;;12.46;100.00
36380;BME280;22411;53.016;18.632;2023-04-25T12:15:17;99725.63;;;12.39;100.00
36380;BME280;22411;53.016;18.632;2023-04-25T12:17:50;99724.91;;;12.37;100.00
36380;BME280;22411;53.016;18.632;2023-04-25T12:20:23;99716.47;;;12.45;100.00
36380;BME280;22411;53.016;18.632;2023-04-25T12:22:50;99718.91;;;12.46;100.00
36380;BME280;22411;53.016;18.632;2023-04-25T12:25:39;99725.75;;;12.38;100.00
36380;BME280;22411;53.016;18.632;2023-04-25T12:30:56;99728.63;;;12.44;100.00
36380;BME280;22411;53.016;18.632;2023-04-25T12:33:28;99719.59;;;12.48;100.00
36380;BME280;22411;53.016;18.632;2023-04-25T12:35:56;99712.47;;;12.70;100.00
36380;BME280;22411;53.016;18.632;2023-04-25T12:38:25;99718.09;;;12.85;100.00
36380;BME280;22411;53.016;18.632;2023-04-25T12:40:57;99739.19;;;12.72;100.00
36380;BME280;22411;53.016;18.632;2023-04-25T12:43:24;99721.25;;;12.40;100.00
36380;BME280;22411;53.016;18.632;2023-04-25T12:45:52;99723.53;;;12.33;100.00
36380;BME280;22411;53.016;18.632;2023-04-25T12:48:19;99725.63;;;12.39;100.00
36380;BME280;22411;53.016;18.632;2023-04-25T12:50:46;99723.28;;;12.36;100.00
36380;BME280;22411;53.016;18.632;2023-04-25T12:53:16;99722.50;;;12.55;100.00